createdAt,value
2018-08-13T00:00:25.029Z,22.80
2018-08-13T00:01:24.826Z,21.50
2018-08-13T00:02:24.968Z,20.50
2018-08-13T00:03:24.869Z,22.50
2018-08-13T00:04:25.063Z,24.60
2018-08-13T00:05:24.848Z,22.30
2018-08-13T00:06:24.854Z,22.90
2018-08-13T00:07:24.988Z,23.60
2018-08-13T00:08:24.895Z,24.40
2018-08-13T00:09:24.903Z,20.70
2018-08-13T00:10:25.324Z,21.10
2018-08-13T00:11:24.915Z,18.60
2018-08-13T00:12:25.026Z,18.70
2018-08-13T00:13:24.943Z,16.50
2018-08-13T00:14:25.156Z,17.80
2018-08-13T00:15:24.968Z,18.30
2018-08-13T00:16:24.980Z,18.60
2018-08-13T00:17:25.138Z,15.20
2018-08-13T00:18:25.204Z,15.20
2018-08-13T00:19:25.017Z,16.80
2018-08-13T00:20:25.222Z,15.80
2018-08-13T00:21:25.036Z,16.70
2018-08-13T00:22:25.189Z,17.70
2018-08-13T00:23:25.249Z,18.60
2018-08-13T00:24:25.062Z,17.80
2018-08-13T00:25:25.069Z,19.20
2018-08-13T00:26:25.078Z,16.40
2018-08-13T00:27:25.338Z,16.70
2018-08-13T00:28:25.100Z,16.10
2018-08-13T00:29:25.721Z,15.70
2018-08-13T00:30:25.321Z,15.70
2018-08-13T00:31:25.737Z,16.90
2018-08-13T00:32:25.135Z,16.80
2018-08-13T00:33:25.306Z,16.50
2018-08-13T00:34:25.156Z,17.90
2018-08-13T00:35:25.175Z,16.50
2018-08-13T00:36:25.180Z,16.40
2018-08-13T00:37:25.185Z,15.00
2018-08-13T00:38:25.350Z,15.10
2018-08-13T00:39:25.214Z,15.40
2018-08-13T00:40:25.219Z,15.30
2018-08-13T00:41:25.232Z,16.20
2018-08-13T00:42:25.220Z,17.00
2018-08-13T00:43:25.554Z,17.00
2018-08-13T00:44:25.331Z,15.90
2018-08-13T00:45:25.272Z,15.80
2018-08-13T00:46:25.287Z,16.00
2018-08-13T00:47:25.290Z,16.50
2018-08-13T00:48:25.300Z,16.80
2018-08-13T00:49:25.761Z,16.30
2018-08-13T00:50:25.324Z,16.90
2018-08-13T00:51:25.331Z,16.70
2018-08-13T00:52:25.343Z,17.50
2018-08-13T00:53:25.329Z,18.80
2018-08-13T00:54:25.517Z,18.10
2018-08-13T00:55:25.371Z,18.70
2018-08-13T00:56:25.387Z,18.80
2018-08-13T00:57:25.594Z,18.70
2018-08-13T00:58:25.396Z,17.70
2018-08-13T00:59:25.559Z,18.40
2018-08-13T01:00:25.419Z,18.20
2018-08-13T01:01:25.428Z,17.60
2018-08-13T01:02:25.440Z,18.30
2018-08-13T01:03:25.446Z,17.80
2018-08-13T01:04:25.608Z,18.10
2018-08-13T01:05:25.451Z,17.80
2018-08-13T01:06:25.680Z,17.60
2018-08-13T01:07:25.486Z,16.80
2018-08-13T01:08:25.501Z,17.90
2018-08-13T01:09:25.642Z,17.90
2018-08-13T01:10:25.519Z,18.20
2018-08-13T01:11:25.531Z,17.90
2018-08-13T01:12:25.542Z,18.70
2018-08-13T01:13:25.752Z,19.40
2018-08-13T01:14:25.708Z,19.40
2018-08-13T01:15:25.565Z,18.30
2018-08-13T01:16:25.560Z,18.40
2018-08-13T01:17:25.789Z,18.90
2018-08-13T01:18:25.577Z,17.40
2018-08-13T01:19:25.754Z,18.20
2018-08-13T01:20:25.628Z,18.20
2018-08-13T01:21:25.623Z,18.00
2018-08-13T01:22:25.639Z,16.90
2018-08-13T01:23:25.643Z,17.10
2018-08-13T01:24:25.808Z,16.10
2018-08-13T01:25:25.666Z,16.50
2018-08-13T01:26:25.677Z,15.70
2018-08-13T01:27:25.683Z,16.80
2018-08-13T01:28:25.699Z,15.50
2018-08-13T01:29:25.863Z,16.00
2018-08-13T01:30:25.719Z,14.50
2018-08-13T01:31:25.705Z,13.70
2018-08-13T01:32:25.740Z,14.50
2018-08-13T01:33:25.749Z,15.30
2018-08-13T01:34:25.902Z,15.00
2018-08-13T01:35:25.768Z,15.80
2018-08-13T01:36:25.778Z,16.30
2018-08-13T01:37:25.788Z,18.90
2018-08-13T01:38:25.793Z,19.80
2018-08-13T01:39:25.957Z,19.80
2018-08-13T01:40:25.811Z,19.00
2018-08-13T01:41:25.823Z,21.00
2018-08-13T01:42:25.815Z,20.60
2018-08-13T01:43:25.849Z,19.90
2018-08-13T01:44:26.009Z,18.90
2018-08-13T01:45:25.863Z,19.80
2018-08-13T01:46:25.877Z,19.90
2018-08-13T01:47:25.882Z,19.60
2018-08-13T01:48:25.893Z,18.50
2018-08-13T01:49:26.055Z,17.40
2018-08-13T01:50:25.913Z,17.70
2018-08-13T01:51:25.931Z,17.50
2018-08-13T01:52:25.931Z,15.80
2018-08-13T01:53:25.942Z,13.50
2018-08-13T01:54:26.102Z,13.80
2018-08-13T01:55:25.965Z,13.60
2018-08-13T01:56:25.971Z,12.60
2018-08-13T01:57:25.979Z,10.70
2018-08-13T01:58:25.997Z,10.70
2018-08-13T01:59:26.351Z,11.00
2018-08-13T02:00:26.016Z,11.60
2018-08-13T02:01:26.046Z,11.60
2018-08-13T02:02:26.031Z,10.00
2018-08-13T02:03:26.036Z,9.70
2018-08-13T02:04:26.055Z,9.90
2018-08-13T02:05:26.212Z,9.20
2018-08-13T02:06:26.049Z,10.00
2018-08-13T02:07:26.081Z,9.70
2018-08-13T02:08:26.100Z,10.10
2018-08-13T02:09:26.082Z,9.50
2018-08-13T02:10:26.261Z,9.50
2018-08-13T02:11:26.119Z,9.40
2018-08-13T02:12:26.117Z,9.20
2018-08-13T02:13:26.136Z,8.90
2018-08-13T02:14:26.153Z,8.70
2018-08-13T02:15:26.315Z,8.80
2018-08-13T02:16:26.175Z,9.00
2018-08-13T02:17:26.177Z,9.80
2018-08-13T02:18:26.195Z,10.10
2018-08-13T02:19:26.201Z,9.60
2018-08-13T02:20:26.201Z,10.20
2018-08-13T02:21:26.327Z,11.70
2018-08-13T02:22:26.233Z,11.00
2018-08-13T02:23:26.241Z,9.90
2018-08-13T02:24:26.258Z,10.00
2018-08-13T02:25:26.241Z,9.10
2018-08-13T02:26:26.272Z,8.10
2018-08-13T02:27:26.434Z,7.70
2018-08-13T02:28:26.293Z,7.00
2018-08-13T02:29:26.303Z,7.50
2018-08-13T02:30:26.316Z,7.90
2018-08-13T02:31:26.325Z,8.20
2018-08-13T02:32:26.484Z,10.90
2018-08-13T02:33:26.340Z,14.50
2018-08-13T02:34:26.351Z,13.90
2018-08-13T02:35:26.341Z,12.10
2018-08-13T02:36:26.362Z,12.10
2018-08-13T02:37:26.536Z,10.90
2018-08-13T02:38:26.398Z,8.40
2018-08-13T02:39:26.459Z,6.90
2018-08-13T02:40:26.423Z,7.60
2018-08-13T02:41:26.422Z,8.40
2018-08-13T02:42:26.688Z,9.10
2018-08-13T02:43:26.432Z,8.80
2018-08-13T02:44:26.448Z,7.70
2018-08-13T02:45:26.463Z,8.30
2018-08-13T02:46:26.481Z,7.70
2018-08-13T02:47:26.638Z,8.80
2018-08-13T02:48:26.501Z,8.40
2018-08-13T02:49:26.505Z,9.40
2018-08-13T02:50:26.516Z,8.30
2018-08-13T02:51:27.122Z,6.80
2018-08-13T02:52:26.892Z,7.20
2018-08-13T02:53:26.752Z,6.10
2018-08-13T02:54:26.562Z,7.20
2018-08-13T02:55:26.756Z,7.40
2018-08-13T02:56:26.590Z,5.70
2018-08-13T02:57:26.739Z,5.70
2018-08-13T02:58:26.603Z,4.80
2018-08-13T02:59:26.625Z,5.00
2018-08-13T03:00:26.626Z,5.10
2018-08-13T03:01:26.839Z,4.80
2018-08-13T03:02:26.791Z,6.20
2018-08-13T03:03:26.650Z,5.40
2018-08-13T03:04:26.683Z,5.90
2018-08-13T03:05:26.879Z,5.40
2018-08-13T03:06:26.684Z,5.50
2018-08-13T03:07:26.844Z,5.40
2018-08-13T03:08:26.705Z,5.10
2018-08-13T03:09:26.711Z,5.70
2018-08-13T03:10:26.703Z,6.20
2018-08-13T03:11:26.732Z,5.80
2018-08-13T03:12:27.319Z,4.70
2018-08-13T03:13:26.940Z,4.80
2018-08-13T03:14:26.772Z,4.70
2018-08-13T03:15:26.780Z,4.00
2018-08-13T03:16:26.792Z,4.30
2018-08-13T03:17:27.197Z,4.50
2018-08-13T03:18:26.955Z,4.30
2018-08-13T03:19:26.797Z,4.40
2018-08-13T03:20:26.831Z,4.50
2018-08-13T03:21:27.041Z,4.60
2018-08-13T03:22:27.050Z,4.30
2018-08-13T03:23:27.005Z,4.70
2018-08-13T03:24:26.868Z,5.00
2018-08-13T03:25:27.080Z,4.70
2018-08-13T03:26:27.093Z,4.00
2018-08-13T03:27:26.899Z,4.30
2018-08-13T03:28:27.261Z,5.00
2018-08-13T03:29:26.917Z,5.50
2018-08-13T03:30:26.931Z,5.60
2018-08-13T03:31:26.924Z,6.10
2018-08-13T03:32:26.969Z,5.40
2018-08-13T03:33:27.119Z,5.40
2018-08-13T03:34:26.952Z,6.20
2018-08-13T03:35:26.982Z,6.80
2018-08-13T03:36:26.992Z,6.80
2018-08-13T03:37:27.006Z,6.50
2018-08-13T03:38:27.159Z,6.10
2018-08-13T03:39:27.021Z,6.50
2018-08-13T03:40:27.031Z,5.80
2018-08-13T03:41:27.042Z,6.50
2018-08-13T03:42:27.027Z,6.10
2018-08-13T03:43:27.212Z,6.60
2018-08-13T03:44:27.073Z,6.40
2018-08-13T03:45:27.072Z,7.20
2018-08-13T03:46:27.087Z,6.30
2018-08-13T03:47:27.093Z,6.50
2018-08-13T03:48:27.260Z,6.80
2018-08-13T03:49:27.129Z,6.50
2018-08-13T03:50:27.125Z,6.40
2018-08-13T03:51:27.131Z,6.50
2018-08-13T03:52:27.144Z,6.70
2018-08-13T03:53:27.410Z,6.30
2018-08-13T03:54:27.172Z,6.80
2018-08-13T03:55:27.179Z,7.10
2018-08-13T03:56:27.183Z,7.10
2018-08-13T03:57:27.196Z,6.70
2018-08-13T03:58:27.199Z,7.30
2018-08-13T03:59:27.362Z,7.30
2018-08-13T04:00:27.224Z,7.60
2018-08-13T04:01:27.238Z,7.50
2018-08-13T04:02:27.220Z,7.60
2018-08-13T04:03:27.249Z,8.10
2018-08-13T04:04:27.259Z,7.90
2018-08-13T04:05:27.422Z,8.60
2018-08-13T04:06:27.259Z,8.30
2018-08-13T04:07:27.287Z,8.60
2018-08-13T04:08:27.302Z,9.00
2018-08-13T04:09:27.305Z,8.50
2018-08-13T04:10:27.468Z,9.60
2018-08-13T04:11:27.340Z,8.90
2018-08-13T04:12:27.337Z,8.80
2018-08-13T04:13:27.330Z,9.10
2018-08-13T04:14:27.365Z,9.50
2018-08-13T04:15:27.522Z,8.80
2018-08-13T04:16:27.379Z,9.50
2018-08-13T04:17:27.369Z,9.60
2018-08-13T04:18:27.402Z,9.40
2018-08-13T04:19:27.414Z,11.10
2018-08-13T04:20:27.575Z,9.90
2018-08-13T04:21:27.406Z,9.60
2018-08-13T04:22:27.438Z,9.70
2018-08-13T04:23:27.452Z,10.40
2018-08-13T04:24:27.468Z,9.90
2018-08-13T04:25:27.626Z,10.10
2018-08-13T04:26:27.456Z,10.20
2018-08-13T04:27:27.482Z,10.10
2018-08-13T04:28:27.495Z,11.10
2018-08-13T04:29:27.505Z,10.30
2018-08-13T04:30:27.658Z,9.60
2018-08-13T04:31:27.724Z,9.80
2018-08-13T04:32:27.734Z,9.90
2018-08-13T04:33:27.535Z,8.90
2018-08-13T04:34:27.726Z,9.40
2018-08-13T04:35:27.712Z,9.60
2018-08-13T04:36:27.568Z,9.60
2018-08-13T04:37:27.560Z,9.90
2018-08-13T04:38:27.568Z,10.20
2018-08-13T04:39:27.596Z,10.00
2018-08-13T04:40:27.762Z,9.70
2018-08-13T04:41:27.617Z,11.20
2018-08-13T04:42:27.628Z,11.20
2018-08-13T04:43:27.632Z,10.90
2018-08-13T04:44:27.645Z,10.70
2018-08-13T04:45:27.810Z,11.30
2018-08-13T04:46:27.660Z,10.40
2018-08-13T04:47:27.677Z,10.20
2018-08-13T04:48:27.681Z,11.20
2018-08-13T04:49:27.690Z,10.20
2018-08-13T04:50:27.857Z,10.20
2018-08-13T04:51:27.704Z,10.60
2018-08-13T04:52:27.718Z,10.10
2018-08-13T04:53:27.728Z,9.40
2018-08-13T04:54:27.734Z,9.70
2018-08-13T04:55:27.878Z,9.30
2018-08-13T04:56:27.762Z,10.20
2018-08-13T04:57:27.970Z,11.10
2018-08-13T04:58:27.772Z,10.60
2018-08-13T04:59:27.782Z,10.40
2018-08-13T05:00:28.044Z,11.40
2018-08-13T05:01:28.009Z,12.00
2018-08-13T05:02:27.820Z,12.50
2018-08-13T05:03:28.027Z,12.80
2018-08-13T05:04:27.834Z,11.70
2018-08-13T05:05:27.968Z,11.40
2018-08-13T05:06:27.855Z,11.30
2018-08-13T05:07:27.925Z,10.80
2018-08-13T05:08:27.867Z,10.70
2018-08-13T05:09:28.082Z,11.10
2018-08-13T05:10:28.442Z,11.10
2018-08-13T05:11:27.899Z,12.10
2018-08-13T05:12:27.906Z,12.20
2018-08-13T05:13:27.909Z,11.20
2018-08-13T05:14:27.931Z,11.20
2018-08-13T05:15:28.181Z,11.60
2018-08-13T05:16:27.941Z,11.90
2018-08-13T05:17:27.951Z,11.80
2018-08-13T05:18:27.963Z,12.00
2018-08-13T05:19:27.973Z,12.00
2018-08-13T05:20:28.232Z,12.40
2018-08-13T05:21:27.975Z,12.30
2018-08-13T05:22:28.000Z,12.30
2018-08-13T05:23:28.003Z,12.50
2018-08-13T05:24:28.011Z,13.00
2018-08-13T05:25:28.276Z,13.80
2018-08-13T05:26:28.031Z,14.10
2018-08-13T05:27:28.042Z,13.70
2018-08-13T05:28:28.055Z,13.80
2018-08-13T05:29:28.061Z,13.40
2018-08-13T05:30:28.132Z,14.30
2018-08-13T05:31:28.433Z,13.20
2018-08-13T05:32:28.292Z,13.80
2018-08-13T05:33:28.097Z,14.00
2018-08-13T05:34:28.106Z,14.50
2018-08-13T05:35:28.122Z,13.90
2018-08-13T05:36:28.125Z,13.30
2018-08-13T05:37:28.286Z,14.90
2018-08-13T05:38:28.148Z,13.70
2018-08-13T05:39:28.153Z,13.30
2018-08-13T05:40:28.150Z,14.80
2018-08-13T05:41:28.166Z,17.30
2018-08-13T05:42:28.184Z,27.50
2018-08-13T05:43:28.339Z,24.60
2018-08-13T05:44:28.204Z,24.90
2018-08-13T05:45:28.192Z,20.10
2018-08-13T05:46:28.219Z,18.30
2018-08-13T05:47:28.225Z,19.00
2018-08-13T05:48:28.238Z,21.40
2018-08-13T05:49:28.393Z,20.50
2018-08-13T05:50:28.256Z,19.90
2018-08-13T05:51:28.262Z,16.60
2018-08-13T05:52:28.281Z,16.60
2018-08-13T05:53:28.285Z,15.30
2018-08-13T05:54:28.440Z,14.80
2018-08-13T05:55:28.308Z,14.80
2018-08-13T05:56:28.309Z,14.40
2018-08-13T05:57:28.316Z,15.40
2018-08-13T05:58:28.337Z,14.30
2018-08-13T05:59:28.492Z,14.00
2018-08-13T06:00:28.348Z,14.80
2018-08-13T06:01:28.357Z,14.70
2018-08-13T06:02:28.365Z,14.40
2018-08-13T06:03:28.573Z,13.00
2018-08-13T06:04:28.540Z,14.50
2018-08-13T06:05:28.577Z,14.40
2018-08-13T06:06:28.404Z,14.50
2018-08-13T06:07:28.407Z,15.10
2018-08-13T06:08:28.417Z,14.90
2018-08-13T06:09:29.180Z,14.90
2018-08-13T06:10:28.438Z,14.40
2018-08-13T06:11:28.436Z,14.90
2018-08-13T06:12:28.454Z,15.60
2018-08-13T06:13:28.665Z,15.70
2018-08-13T06:14:28.629Z,16.70
2018-08-13T06:15:28.482Z,16.90
2018-08-13T06:16:28.492Z,17.00
2018-08-13T06:17:28.503Z,16.90
2018-08-13T06:18:28.509Z,17.10
2018-08-13T06:19:28.667Z,17.10
2018-08-13T06:20:28.526Z,18.10
2018-08-13T06:21:28.534Z,17.10
2018-08-13T06:22:28.555Z,16.80
2018-08-13T06:23:28.564Z,16.70
2018-08-13T06:24:28.717Z,16.90
2018-08-13T06:25:28.575Z,15.80
2018-08-13T06:26:28.579Z,16.70
2018-08-13T06:27:28.578Z,15.40
2018-08-13T06:28:28.599Z,15.60
2018-08-13T06:29:28.858Z,15.50
2018-08-13T06:30:28.601Z,15.00
2018-08-13T06:31:28.629Z,15.00
2018-08-13T06:32:28.619Z,14.80
2018-08-13T06:33:28.643Z,16.10
2018-08-13T06:34:28.806Z,15.80
2018-08-13T06:35:28.665Z,16.20
2018-08-13T06:36:28.667Z,15.70
2018-08-13T06:37:28.676Z,16.10
2018-08-13T06:38:28.692Z,17.20
2018-08-13T06:39:28.859Z,17.80
2018-08-13T06:40:28.708Z,18.20
2018-08-13T06:41:28.723Z,18.20
2018-08-13T06:42:28.722Z,18.00
2018-08-13T06:43:28.737Z,19.40
2018-08-13T06:44:28.895Z,20.20
2018-08-13T06:45:28.733Z,20.80
2018-08-13T06:46:28.757Z,20.40
2018-08-13T06:47:28.775Z,21.20
2018-08-13T06:48:28.788Z,22.00
2018-08-13T06:49:28.919Z,23.70
2018-08-13T06:50:28.795Z,24.50
2018-08-13T06:51:28.806Z,25.20
2018-08-13T06:52:28.796Z,24.00
2018-08-13T06:53:28.826Z,25.30
2018-08-13T06:54:28.979Z,24.60
2018-08-13T06:55:28.838Z,25.30
2018-08-13T06:56:28.856Z,25.30
2018-08-13T06:57:28.856Z,25.60
2018-08-13T06:58:28.868Z,25.80
2018-08-13T06:59:29.129Z,24.90
2018-08-13T07:00:28.881Z,26.50
2018-08-13T07:01:28.890Z,27.20
2018-08-13T07:02:28.901Z,26.10
2018-08-13T07:03:28.896Z,26.50
2018-08-13T07:04:29.072Z,26.10
2018-08-13T07:05:28.939Z,25.90
2018-08-13T07:06:28.944Z,24.70
2018-08-13T07:07:28.947Z,26.20
2018-08-13T07:08:28.952Z,26.10
2018-08-13T07:09:29.128Z,26.50
2018-08-13T07:10:28.975Z,24.10
2018-08-13T07:11:28.985Z,25.90
2018-08-13T07:12:28.999Z,27.10
2018-08-13T07:13:28.997Z,24.70
2018-08-13T07:14:29.364Z,27.40
2018-08-13T07:15:28.997Z,25.90
2018-08-13T07:16:29.033Z,27.00
2018-08-13T07:17:29.033Z,32.00
2018-08-13T07:18:29.054Z,27.20
2018-08-13T07:19:29.035Z,28.00
2018-08-13T07:20:29.234Z,27.50
2018-08-13T07:21:29.275Z,25.80
2018-08-13T07:22:29.258Z,26.30
2018-08-13T07:23:29.495Z,26.90
2018-08-13T07:24:29.078Z,29.30
2018-08-13T07:25:29.253Z,27.50
2018-08-13T07:26:29.118Z,28.00
2018-08-13T07:27:29.930Z,27.30
2018-08-13T07:28:29.135Z,28.00
2018-08-13T07:29:29.142Z,30.10
2018-08-13T07:30:29.147Z,29.10
2018-08-13T07:31:29.404Z,28.20
2018-08-13T07:32:29.346Z,29.50
2018-08-13T07:33:29.233Z,29.40
2018-08-13T07:34:29.188Z,29.40
2018-08-13T07:35:29.193Z,28.70
2018-08-13T07:36:29.200Z,28.80
2018-08-13T07:37:29.460Z,28.30
2018-08-13T07:38:29.226Z,28.90
2018-08-13T07:39:29.329Z,27.40
2018-08-13T07:40:29.239Z,27.80
2018-08-13T07:41:29.229Z,28.50
2018-08-13T07:42:29.408Z,30.60
2018-08-13T07:43:29.247Z,30.70
2018-08-13T07:44:29.273Z,32.90
2018-08-13T07:45:29.342Z,32.00
2018-08-13T07:46:29.332Z,28.60
2018-08-13T07:47:29.448Z,28.80
2018-08-13T07:48:29.318Z,27.30
2018-08-13T07:49:29.323Z,27.20
2018-08-13T07:50:29.333Z,25.80
2018-08-13T07:51:29.341Z,26.60
2018-08-13T07:52:29.493Z,26.10
2018-08-13T07:53:29.353Z,25.50
2018-08-13T07:54:29.355Z,25.40
2018-08-13T07:55:29.573Z,24.40
2018-08-13T07:56:29.361Z,25.20
2018-08-13T07:57:29.515Z,25.00
2018-08-13T07:58:29.398Z,24.30
2018-08-13T07:59:29.396Z,25.80
2018-08-13T08:00:29.419Z,25.60
2018-08-13T08:01:29.632Z,24.90
2018-08-13T08:02:29.584Z,24.90
2018-08-13T08:03:29.436Z,24.30
2018-08-13T08:04:29.451Z,25.10
2018-08-13T08:05:29.662Z,25.10
2018-08-13T08:06:29.473Z,24.50
2018-08-13T08:07:29.627Z,25.30
2018-08-13T08:08:29.467Z,25.60
2018-08-13T08:09:29.695Z,26.40
2018-08-13T08:10:29.487Z,27.30
2018-08-13T08:11:29.723Z,27.10
2018-08-13T08:12:29.672Z,26.90
2018-08-13T08:13:29.541Z,28.60
2018-08-13T08:14:29.544Z,28.80
2018-08-13T08:15:29.551Z,26.20
2018-08-13T08:16:29.769Z,25.40
2018-08-13T08:17:29.720Z,25.00
2018-08-13T08:18:29.581Z,24.80
2018-08-13T08:19:29.587Z,25.30
2018-08-13T08:20:29.597Z,27.80
2018-08-13T08:21:29.751Z,29.10
2018-08-13T08:22:29.767Z,27.30
2018-08-13T08:23:29.630Z,26.80
2018-08-13T08:24:29.634Z,28.70
2018-08-13T08:25:29.640Z,29.90
2018-08-13T08:26:29.652Z,27.20
2018-08-13T08:27:29.800Z,26.20
2018-08-13T08:28:30.075Z,26.20
2018-08-13T08:29:29.659Z,25.30
2018-08-13T08:30:29.893Z,26.50
2018-08-13T08:31:29.684Z,26.70
2018-08-13T08:32:29.862Z,26.10
2018-08-13T08:33:29.715Z,28.20
2018-08-13T08:34:30.110Z,28.20
2018-08-13T08:35:29.714Z,29.60
2018-08-13T08:36:29.948Z,29.70
2018-08-13T08:37:29.903Z,30.50
2018-08-13T08:38:29.750Z,33.50
2018-08-13T08:39:29.777Z,33.80
2018-08-13T08:40:29.848Z,41.30
2018-08-13T08:41:29.793Z,41.60
2018-08-13T08:42:29.953Z,39.20
2018-08-13T08:43:29.807Z,38.80
2018-08-13T08:44:29.823Z,37.20
2018-08-13T08:45:29.833Z,38.40
2018-08-13T08:46:29.834Z,39.50
2018-08-13T08:47:30.018Z,37.80
2018-08-13T08:48:29.858Z,38.20
2018-08-13T08:49:29.848Z,37.60
2018-08-13T08:50:29.852Z,37.90
2018-08-13T08:51:29.889Z,35.70
2018-08-13T08:52:30.183Z,35.90
2018-08-13T08:53:29.909Z,34.40
2018-08-13T08:54:29.900Z,33.90
2018-08-13T08:55:29.926Z,33.40
2018-08-13T08:56:29.935Z,32.50
2018-08-13T08:57:30.093Z,31.50
2018-08-13T08:58:29.959Z,33.00
2018-08-13T08:59:29.979Z,30.70
2018-08-13T09:00:29.958Z,32.40
2018-08-13T09:01:29.977Z,31.30
2018-08-13T09:02:30.142Z,30.80
2018-08-13T09:03:30.003Z,31.70
2018-08-13T09:04:30.009Z,32.40
2018-08-13T09:05:30.019Z,32.30
2018-08-13T09:06:30.024Z,31.30
2018-08-13T09:07:30.187Z,30.30
2018-08-13T09:08:30.046Z,32.70
2018-08-13T09:09:30.053Z,31.00
2018-08-13T09:10:30.064Z,30.20
2018-08-13T09:11:30.079Z,27.50
2018-08-13T09:12:30.237Z,30.30
2018-08-13T09:13:30.095Z,28.40
2018-08-13T09:14:30.108Z,28.00
2018-08-13T09:15:30.118Z,25.60
2018-08-13T09:16:30.124Z,23.40
2018-08-13T09:17:30.129Z,25.20
2018-08-13T09:18:30.294Z,22.90
2018-08-13T09:19:30.158Z,22.10
2018-08-13T09:20:30.165Z,21.90
2018-08-13T09:21:30.176Z,20.50
2018-08-13T09:22:30.187Z,20.10
2018-08-13T09:23:30.173Z,16.90
2018-08-13T09:24:30.363Z,17.50
2018-08-13T09:25:30.207Z,17.60
2018-08-13T09:26:30.212Z,17.90
2018-08-13T09:27:30.216Z,17.30
2018-08-13T09:28:30.242Z,16.40
2018-08-13T09:29:30.403Z,16.90
2018-08-13T09:30:30.260Z,17.60
2018-08-13T09:31:30.271Z,17.40
2018-08-13T09:32:30.283Z,17.00
2018-08-13T09:33:30.288Z,18.00
2018-08-13T09:34:30.456Z,19.10
2018-08-13T09:35:30.313Z,21.20
2018-08-13T09:36:30.354Z,20.50
2018-08-13T09:37:30.333Z,21.70
2018-08-13T09:38:30.346Z,19.20
2018-08-13T09:39:30.503Z,18.90
2018-08-13T09:40:30.365Z,20.70
2018-08-13T09:41:30.354Z,19.80
2018-08-13T09:42:30.365Z,17.70
2018-08-13T09:43:30.392Z,19.10
2018-08-13T09:44:30.532Z,18.60
2018-08-13T09:45:30.410Z,19.50
2018-08-13T09:46:30.426Z,14.40
2018-08-13T09:47:30.429Z,15.20
2018-08-13T09:48:30.445Z,14.80
2018-08-13T09:49:30.614Z,14.50
2018-08-13T09:50:30.466Z,15.20
2018-08-13T09:51:30.477Z,14.40
2018-08-13T09:52:30.484Z,13.70
2018-08-13T09:53:30.488Z,11.90
2018-08-13T09:54:30.855Z,11.50
2018-08-13T09:55:30.526Z,12.30
2018-08-13T09:56:30.524Z,11.70
2018-08-13T09:57:30.541Z,11.40
2018-08-13T09:58:30.548Z,10.90
2018-08-13T09:59:30.707Z,10.60
2018-08-13T10:00:30.764Z,11.30
2018-08-13T10:01:30.573Z,11.60
2018-08-13T10:02:30.774Z,11.30
2018-08-13T10:03:30.584Z,12.50
2018-08-13T10:04:30.761Z,12.70
2018-08-13T10:05:30.612Z,11.90
2018-08-13T10:06:31.229Z,14.40
2018-08-13T10:07:30.632Z,16.20
2018-08-13T10:08:30.848Z,15.90
2018-08-13T10:09:30.791Z,15.70
2018-08-13T10:10:30.644Z,15.90
2018-08-13T10:11:30.674Z,15.70
2018-08-13T10:12:30.893Z,15.90
2018-08-13T10:13:30.700Z,15.30
2018-08-13T10:14:30.859Z,15.00
2018-08-13T10:15:30.705Z,14.80
2018-08-13T10:16:30.731Z,15.80
2018-08-13T10:17:30.761Z,15.30
2018-08-13T10:18:30.754Z,14.80
2018-08-13T10:19:30.911Z,13.30
2018-08-13T10:20:30.996Z,14.00
2018-08-13T10:21:31.187Z,14.30
2018-08-13T10:22:30.797Z,13.40
2018-08-13T10:23:31.187Z,12.90
2018-08-13T10:24:30.916Z,13.70
2018-08-13T10:25:30.803Z,13.70
2018-08-13T10:26:30.814Z,13.40
2018-08-13T10:27:31.255Z,13.90
2018-08-13T10:28:30.858Z,10.60
2018-08-13T10:29:31.213Z,10.40
2018-08-13T10:30:30.872Z,11.30
2018-08-13T10:31:30.892Z,12.30
2018-08-13T10:32:30.901Z,12.30
2018-08-13T10:33:30.894Z,12.30
2018-08-13T10:34:30.902Z,12.10
2018-08-13T10:35:31.080Z,12.40
2018-08-13T10:36:30.939Z,12.80
2018-08-13T10:37:31.006Z,12.60
2018-08-13T10:38:30.948Z,11.80
2018-08-13T10:39:30.973Z,11.90
2018-08-13T10:40:31.134Z,12.90
2018-08-13T10:41:30.993Z,10.10
2018-08-13T10:42:31.006Z,9.10
2018-08-13T10:43:31.037Z,9.10
2018-08-13T10:44:31.026Z,10.00
2018-08-13T10:45:31.392Z,11.10
2018-08-13T10:46:31.034Z,10.40
2018-08-13T10:47:31.057Z,10.90
2018-08-13T10:48:31.068Z,10.40
2018-08-13T10:49:31.105Z,10.50
2018-08-13T10:50:31.096Z,11.90
2018-08-13T10:51:31.253Z,11.30
2018-08-13T10:52:31.115Z,10.70
2018-08-13T10:53:31.122Z,11.50
2018-08-13T10:54:31.135Z,10.60
2018-08-13T10:55:31.151Z,9.80
2018-08-13T10:56:31.147Z,10.90
2018-08-13T10:57:31.303Z,10.40
2018-08-13T10:58:31.191Z,9.70
2018-08-13T10:59:31.177Z,10.10
2018-08-13T11:00:31.202Z,10.80
2018-08-13T11:01:31.196Z,10.70
2018-08-13T11:02:31.787Z,10.20
2018-08-13T11:03:31.242Z,10.80
2018-08-13T11:04:31.247Z,10.40
2018-08-13T11:05:31.262Z,11.30
2018-08-13T11:06:32.079Z,12.90
2018-08-13T11:07:31.528Z,12.90
2018-08-13T11:08:31.295Z,12.20
2018-08-13T11:09:31.303Z,11.20
2018-08-13T11:10:31.317Z,11.70
2018-08-13T11:11:31.327Z,10.80
2018-08-13T11:12:31.469Z,10.50
2018-08-13T11:13:31.445Z,11.10
2018-08-13T11:14:31.340Z,11.60
2018-08-13T11:15:31.368Z,11.70
2018-08-13T11:16:31.585Z,12.20
2018-08-13T11:17:31.494Z,11.00
2018-08-13T11:18:31.409Z,11.80
2018-08-13T11:19:31.416Z,10.20
2018-08-13T11:20:31.437Z,8.50
2018-08-13T11:21:31.665Z,9.50
2018-08-13T11:22:31.606Z,8.90
2018-08-13T11:23:31.467Z,9.10
2018-08-13T11:24:31.480Z,9.10
2018-08-13T11:25:31.547Z,8.70
2018-08-13T11:26:31.502Z,8.30
2018-08-13T11:27:31.661Z,7.60
2018-08-13T11:28:32.173Z,7.90
2018-08-13T11:29:31.513Z,7.80
2018-08-13T11:30:31.948Z,8.60
2018-08-13T11:31:31.563Z,9.10
2018-08-13T11:32:31.721Z,8.90
2018-08-13T11:33:31.556Z,9.00
2018-08-13T11:34:31.593Z,9.40
2018-08-13T11:35:31.800Z,10.00
2018-08-13T11:36:32.021Z,10.40
2018-08-13T11:37:31.858Z,10.50
2018-08-13T11:38:31.632Z,10.40
2018-08-13T11:39:31.646Z,10.20
2018-08-13T11:40:31.717Z,11.50
2018-08-13T11:41:31.668Z,11.00
2018-08-13T11:42:31.833Z,10.30
2018-08-13T11:43:31.675Z,10.40
2018-08-13T11:44:31.907Z,10.90
2018-08-13T11:45:31.701Z,10.20
2018-08-13T11:46:31.729Z,9.90
2018-08-13T11:47:31.993Z,9.90
2018-08-13T11:48:31.737Z,10.50
2018-08-13T11:49:31.764Z,11.00
2018-08-13T11:50:31.983Z,10.60
2018-08-13T11:51:31.795Z,11.30
2018-08-13T11:52:31.969Z,10.60
2018-08-13T11:53:32.019Z,10.60
2018-08-13T11:54:31.816Z,12.00
2018-08-13T11:55:31.847Z,11.40
2018-08-13T11:56:31.934Z,10.30
2018-08-13T11:57:32.120Z,11.00
2018-08-13T11:58:31.877Z,10.60
2018-08-13T11:59:31.878Z,9.70
2018-08-13T12:00:31.901Z,11.10
2018-08-13T12:01:31.912Z,11.10
2018-08-13T12:02:32.026Z,12.00
2018-08-13T12:03:32.152Z,12.40
2018-08-13T12:04:31.955Z,12.50
2018-08-13T12:05:31.969Z,12.20
2018-08-13T12:06:31.974Z,12.80
2018-08-13T12:07:32.143Z,12.70
2018-08-13T12:08:32.054Z,12.80
2018-08-13T12:09:32.020Z,12.00
2018-08-13T12:10:32.034Z,11.20
2018-08-13T12:11:32.040Z,10.60
2018-08-13T12:12:32.162Z,10.60
2018-08-13T12:13:32.067Z,11.10
2018-08-13T12:14:32.089Z,10.70
2018-08-13T12:15:32.284Z,10.00
2018-08-13T12:16:32.087Z,8.90
2018-08-13T12:17:32.407Z,8.20
2018-08-13T12:18:32.135Z,8.00
2018-08-13T12:19:32.201Z,7.90
2018-08-13T12:20:32.161Z,7.90
2018-08-13T12:21:32.176Z,8.60
2018-08-13T12:22:32.287Z,9.50
2018-08-13T12:23:32.199Z,9.50
2018-08-13T12:24:32.214Z,10.40
2018-08-13T12:25:32.213Z,10.10
2018-08-13T12:26:32.283Z,10.80
2018-08-13T12:27:32.560Z,10.50
2018-08-13T12:28:32.474Z,9.50
2018-08-13T12:29:32.468Z,9.10
2018-08-13T12:30:32.295Z,9.10
2018-08-13T12:31:32.317Z,9.00
2018-08-13T12:32:32.469Z,8.60
2018-08-13T12:33:32.337Z,8.50
2018-08-13T12:34:32.356Z,8.00
2018-08-13T12:35:32.384Z,6.90
2018-08-13T12:36:32.379Z,7.80
2018-08-13T12:37:32.545Z,7.80
2018-08-13T12:38:32.391Z,7.90
2018-08-13T12:39:32.401Z,7.20
2018-08-13T12:40:32.422Z,7.50
2018-08-13T12:41:32.455Z,7.40
2018-08-13T12:42:32.621Z,6.80
2018-08-13T12:43:32.477Z,6.00
2018-08-13T12:44:32.487Z,5.20
2018-08-13T12:45:32.510Z,5.10
2018-08-13T12:46:32.722Z,5.00
2018-08-13T12:47:32.884Z,4.80
2018-08-13T12:48:32.547Z,4.80
2018-08-13T12:49:32.549Z,4.90
2018-08-13T12:50:32.580Z,4.10
2018-08-13T12:51:32.592Z,4.50
2018-08-13T12:52:32.762Z,4.40
2018-08-13T12:53:32.627Z,4.20
2018-08-13T12:54:32.842Z,4.50
2018-08-13T12:55:32.628Z,4.60
2018-08-13T12:56:32.872Z,4.20
2018-08-13T12:57:32.813Z,3.60
2018-08-13T12:58:32.693Z,2.80
2018-08-13T12:59:32.692Z,3.10